Weather at Mariano Moreno Airport

Public forecast

Using degrees Celsius for public forecast. Weather courtesy of forecast.io.

Closest aviation weather report (METAR) to Mariano Moreno Airport

Closest report is San Fernando Airport, 11.8 nm (21.9 km) ENE.

2024/05/26 07:00 (retrieved 1 hour ago)

SADF 260700Z 21004KT 9999 FEW046 05/01 Q1030

Closest aviation forecast (TAF) to Mariano Moreno Airport

Closest forecast is San Fernando Airport, 11.8 nm (21.9 km) ENE.

2024/05/26 06:00 (retrieved 2 hours ago)

TAF SADF 260500Z 2606/2706 VRB03KT CAVOK TX12/2618Z TN03/2608Z BECMG 2608/2610 9999 SCT035 PROB40 TEMPO 2613/2620 8000 -SHRA BKN020 FEW035TCU BECMG 2616/2618 09010KT 9999 BKN040 TEMPO 2618/2705 8000 -RA OVC045